Nisula, MI (49952)

8:10 PM EDT on October 01, 2014 (GMT -0400)
RAWS KENTON MI US | Change Station
CLOSE
Current Station
Personal Weather Station
Location: Nisula, MI
Elevation: 1262 ft
Nearby Weather Stations

Elev 1262 ft 46.61 °N, 88.91 °W | Updated 1 hour ago

Overcast
Overcast
54 °F
Feels Like 54 °F
N
4
Wind Variable Wind from South
Gusts 8.0 mph

Today
High -- | Low -- °F
--% Chance of Precip.
Yesterday
High -- | Low -- °F
Precip. -- in
7:54 AM 7:35 PM
First Quarter, 52% visible
Pressure 29.87 in
Visibility 10.0 miles
Clouds Overcast 1100 ft
Dew Point 48 °F
Humidity 81%
Rainfall 0.00 in
Snow Depth Not available.
UV 0 out of 12
Pollen 1.10 out of 12
Air Quality Not available.
Flu Activity Not available.
METAR KLNL 012355Z AUTO 16006KT 10SM OVC011 12/10 A2987 RMK AO2 T01230103 10147 20121

More Conditions Fewer Conditions

Pressure 29.87 in
Visibility 10.0 miles
Clouds Overcast 1100 ft
Dew Point 48 °F
Humidity 81%
Rainfall 0.00 in
Snow Depth Not available.
UV 0 out of 12
Pollen 1.10 out of 12
Air Quality Not available.
Flu Activity Not available.
METAR KLNL 012355Z AUTO 16006KT 10SM OVC011 12/10 A2987 RMK AO2 T01230103 10147 20121

More Conditions Fewer Conditions

10-Day Weather Forecast

Almanac

Astronomy

Oct. 01, 2014 Rise Set
Actual Time 7:54 AM EDT 7:35 PM EDT
Civil Twilight 7:24 AM EDT 8:05 PM EDT
Nautical Twilight 6:48 AM EDT 8:40 PM EDT
Astronomical Twilight 6:13 AM EDT 9:15 PM EDT
Moon 3:10 PM EDT (10/1) No Moon Set
Length of Visible Light 12h 41m
Length of Day
11h 41m
Tomorrow will be 3m 18s shorter.
First Quarter, 52% of the Moon is Illuminated
Today
First Quarter
Oct 8
Full
Oct 15
Last Quarter
Oct 23
New
Oct 30
First Quarter

Today's Extremes

State Highs State Lows

Community

WunderPhotos

Upload Photos

1,758,097 photos uploaded!

WunderBlogs® & News

Nearby

Snow Depth

Station Depth Elevation
No new snow has been reported.

Earthquake Activity

City Distance Mag. Time & Date
No recent earthquake activity has been reported nearby.
Minimum magnitude displayed is 2.5.

Coastal Water Temperatures

Place Temperature
No Stations Reporting

Nearby Weather Stations